createdAt,value
2018-07-05T00:01:27.145Z,3.02
2018-07-05T00:04:06.948Z,3.30
2018-07-05T00:06:47.800Z,3.00
2018-07-05T00:09:27.615Z,3.35
2018-07-05T00:12:07.511Z,3.65
2018-07-05T00:14:47.314Z,3.55
2018-07-05T00:17:27.053Z,3.25
2018-07-05T00:20:06.946Z,3.15
2018-07-05T00:22:46.717Z,3.25
2018-07-05T00:25:27.597Z,2.80
2018-07-05T00:28:07.360Z,3.05
2018-07-05T00:30:47.312Z,3.15
2018-07-05T00:33:27.179Z,2.90
2018-07-05T00:36:06.901Z,2.60
2018-07-05T00:38:46.756Z,3.50
2018-07-05T00:41:26.553Z,3.05
2018-07-05T00:44:06.473Z,3.33
2018-07-05T00:46:46.234Z,3.25
2018-07-05T00:49:25.985Z,3.40
2018-07-05T00:52:05.668Z,2.90
2018-07-05T00:54:45.462Z,3.75
2018-07-05T00:57:25.251Z,2.70
2018-07-05T01:00:05.061Z,3.05
2018-07-05T01:02:44.802Z,2.90
2018-07-05T01:05:24.555Z,3.00
2018-07-05T01:08:04.337Z,3.25
2018-07-05T01:10:44.087Z,3.02
2018-07-05T01:13:23.845Z,3.17
2018-07-05T01:16:03.825Z,3.37
2018-07-05T01:18:44.042Z,2.98
2018-07-05T01:21:23.821Z,3.50
2018-07-05T01:24:03.690Z,3.55
2018-07-05T01:26:43.603Z,3.35
2018-07-05T01:29:23.525Z,3.27
2018-07-05T01:32:04.560Z,3.20
2018-07-05T01:34:44.300Z,3.00
2018-07-05T01:37:24.202Z,3.65
2018-07-05T01:40:04.076Z,3.50
2018-07-05T01:42:43.821Z,3.15
2018-07-05T01:45:23.702Z,3.00
2018-07-05T01:48:03.477Z,3.00
2018-07-05T01:50:43.232Z,3.45
2018-07-05T01:53:22.905Z,3.15
2018-07-05T01:56:02.821Z,3.27
2018-07-05T01:58:42.622Z,2.62
2018-07-05T02:01:22.301Z,3.85
2018-07-05T02:04:02.118Z,3.30
2018-07-05T02:06:42.841Z,2.98
2018-07-05T02:09:22.736Z,3.25
2018-07-05T02:12:02.671Z,3.52
2018-07-05T02:14:42.446Z,3.45
2018-07-05T02:17:22.630Z,3.40
2018-07-05T02:20:02.564Z,3.75
2018-07-05T02:22:42.297Z,3.72
2018-07-05T02:25:22.179Z,3.83
2018-07-05T02:28:01.981Z,3.40
2018-07-05T02:30:41.693Z,3.55
2018-07-05T02:33:21.473Z,3.20
2018-07-05T02:36:01.880Z,4.22
2018-07-05T02:38:41.658Z,3.47
2018-07-05T02:41:21.604Z,3.50
2018-07-05T02:44:01.333Z,3.90
2018-07-05T02:46:42.230Z,3.40
2018-07-05T02:49:21.989Z,3.65
2018-07-05T02:52:02.314Z,3.85
2018-07-05T02:54:42.105Z,4.33
2018-07-05T02:57:21.845Z,3.15
2018-07-05T03:00:01.800Z,3.60
2018-07-05T03:02:41.614Z,3.50
2018-07-05T03:05:21.390Z,3.62
2018-07-05T03:08:01.297Z,3.52
2018-07-05T03:10:41.176Z,3.60
2018-07-05T03:13:21.070Z,3.60
2018-07-05T03:16:00.876Z,3.98
2018-07-05T03:18:40.801Z,3.40
2018-07-05T03:21:21.295Z,3.95
2018-07-05T03:24:01.103Z,3.50
2018-07-05T03:26:41.002Z,4.22
2018-07-05T03:29:20.807Z,4.33
2018-07-05T03:32:00.724Z,3.95
2018-07-05T03:34:40.626Z,3.77
2018-07-05T03:37:20.541Z,3.50
2018-07-05T03:40:00.414Z,3.65
2018-07-05T03:42:40.290Z,3.80
2018-07-05T03:45:20.217Z,3.58
2018-07-05T03:48:00.105Z,3.90
2018-07-05T03:50:40.039Z,3.40
2018-07-05T03:53:20.217Z,3.45
2018-07-05T03:56:00.118Z,3.20
2018-07-05T03:58:39.997Z,4.15
2018-07-05T04:01:19.892Z,4.83
2018-07-05T04:03:59.813Z,4.10
2018-07-05T04:06:39.694Z,3.40
2018-07-05T04:09:19.869Z,4.37
2018-07-05T04:11:59.914Z,3.58
2018-07-05T04:14:39.785Z,4.00
2018-07-05T04:17:19.686Z,4.47
2018-07-05T04:19:59.765Z,4.05
2018-07-05T04:22:39.557Z,3.65
2018-07-05T04:25:19.353Z,3.98
2018-07-05T04:27:59.168Z,4.00
2018-07-05T04:30:39.821Z,4.78
2018-07-05T04:33:19.621Z,4.30
2018-07-05T04:35:59.395Z,4.78
2018-07-05T04:38:39.213Z,4.17
2018-07-05T04:41:18.972Z,4.58
2018-07-05T04:43:58.715Z,3.85
2018-07-05T04:46:38.531Z,4.85
2018-07-05T04:49:18.413Z,4.28
2018-07-05T04:51:58.213Z,3.92
2018-07-05T04:54:38.026Z,4.50
2018-07-05T04:57:17.781Z,4.62
2018-07-05T04:59:57.576Z,4.80
2018-07-05T05:02:37.361Z,4.72
2018-07-05T05:05:17.150Z,4.15
2018-07-05T05:07:56.883Z,3.55
2018-07-05T05:10:37.717Z,4.25
2018-07-05T05:13:17.747Z,4.17
2018-07-05T05:15:58.410Z,4.12
2018-07-05T05:18:38.475Z,4.20
2018-07-05T05:21:18.426Z,4.67
2018-07-05T05:24:03.958Z,4.05
2018-07-05T05:26:45.163Z,4.22
2018-07-05T05:29:25.079Z,3.50
2018-07-05T05:32:05.013Z,4.10
2018-07-05T05:34:45.710Z,4.28
2018-07-05T05:37:27.007Z,3.67
2018-07-05T05:40:06.786Z,4.40
2018-07-05T05:42:46.710Z,3.58
2018-07-05T05:45:26.501Z,6.60
2018-07-05T05:48:06.326Z,5.47
2018-07-05T05:50:46.229Z,4.30
2018-07-05T05:53:26.022Z,4.22
2018-07-05T05:56:06.500Z,3.83
2018-07-05T05:58:46.364Z,3.20
2018-07-05T06:01:26.257Z,3.75
2018-07-05T06:04:06.157Z,3.60
2018-07-05T06:06:46.093Z,3.72
2018-07-05T06:09:25.972Z,3.70
2018-07-05T06:12:05.738Z,3.87
2018-07-05T06:14:45.525Z,3.67
2018-07-05T06:17:25.280Z,12.90
2018-07-05T06:20:05.257Z,4.40
2018-07-05T06:22:45.117Z,4.20
2018-07-05T06:25:24.994Z,4.20
2018-07-05T06:28:04.972Z,3.67
2018-07-05T06:30:44.730Z,3.77
2018-07-05T06:33:24.800Z,3.75
2018-07-05T06:36:04.481Z,4.62
2018-07-05T06:38:44.213Z,3.67
2018-07-05T06:41:23.985Z,3.70
2018-07-05T06:44:03.850Z,4.62
2018-07-05T06:46:43.529Z,3.83
2018-07-05T06:49:23.384Z,4.20
2018-07-05T06:52:03.320Z,3.95
2018-07-05T06:54:43.073Z,4.80
2018-07-05T06:57:22.840Z,4.65
2018-07-05T07:00:02.960Z,4.55
2018-07-05T07:02:43.077Z,4.55
2018-07-05T07:05:23.115Z,3.20
2018-07-05T07:08:03.037Z,3.10
2018-07-05T07:10:42.980Z,4.47
2018-07-05T07:13:22.774Z,3.80
2018-07-05T07:16:02.588Z,3.80
2018-07-05T07:18:42.480Z,4.97
2018-07-05T07:21:22.247Z,4.20
2018-07-05T07:24:02.347Z,3.50
2018-07-05T07:26:42.246Z,3.90
2018-07-05T07:29:22.119Z,3.72
2018-07-05T07:32:01.944Z,3.85
2018-07-05T07:34:41.975Z,4.15
2018-07-05T07:37:21.797Z,3.58
2018-07-05T07:40:01.848Z,4.10
2018-07-05T07:42:29.393Z,4.22
2018-07-05T07:44:56.930Z,3.80
2018-07-05T07:47:24.461Z,3.87
2018-07-05T07:49:51.994Z,3.47
2018-07-05T07:52:19.520Z,3.92
2018-07-05T07:54:47.058Z,3.17
2018-07-05T07:57:14.337Z,3.90
2018-07-05T07:59:41.619Z,4.00
2018-07-05T08:02:08.913Z,3.73
2018-07-05T08:04:36.214Z,3.63
2018-07-05T08:07:03.477Z,4.27
2018-07-05T08:09:30.747Z,4.00
2018-07-05T08:11:58.019Z,4.00
2018-07-05T08:14:25.333Z,3.70
2018-07-05T08:16:52.630Z,3.93
2018-07-05T08:19:19.909Z,3.53
2018-07-05T08:21:47.205Z,3.47
2018-07-05T08:24:14.469Z,3.47
2018-07-05T08:26:41.758Z,3.80
2018-07-05T08:29:09.032Z,3.43
2018-07-05T08:31:36.309Z,3.37
2018-07-05T08:34:03.590Z,3.80
2018-07-05T08:36:30.870Z,3.43
2018-07-05T08:38:58.137Z,3.30
2018-07-05T08:41:25.428Z,3.57
2018-07-05T08:43:52.734Z,3.60
2018-07-05T08:46:20.185Z,3.30
2018-07-05T08:48:47.465Z,4.20
2018-07-05T08:51:14.809Z,3.00
2018-07-05T08:53:42.209Z,3.70
2018-07-05T08:56:09.485Z,2.87
2018-07-05T08:58:36.763Z,3.20
2018-07-05T09:01:04.046Z,2.80
2018-07-05T09:03:31.365Z,3.27
2018-07-05T09:05:58.812Z,3.00
2018-07-05T09:08:26.093Z,2.83
2018-07-05T09:10:53.378Z,3.50
2018-07-05T09:13:20.648Z,2.80
2018-07-05T09:15:47.918Z,2.23
2018-07-05T09:18:15.311Z,3.10
2018-07-05T09:20:42.653Z,3.23
2018-07-05T09:23:09.966Z,2.73
2018-07-05T09:25:37.413Z,3.10
2018-07-05T09:28:04.673Z,2.63
2018-07-05T09:30:31.946Z,3.10
2018-07-05T09:32:59.221Z,3.50
2018-07-05T09:35:26.492Z,3.37
2018-07-05T09:37:53.779Z,3.20
2018-07-05T09:40:21.050Z,2.57
2018-07-05T09:42:48.331Z,2.50
2018-07-05T09:45:15.624Z,2.33
2018-07-05T09:47:42.904Z,2.90
2018-07-05T09:50:10.221Z,3.10
2018-07-05T09:52:37.592Z,3.03
2018-07-05T09:55:05.000Z,2.87
2018-07-05T09:57:32.421Z,3.20
2018-07-05T09:59:59.702Z,3.33
2018-07-05T10:02:26.989Z,2.80
2018-07-05T10:04:54.267Z,3.13
2018-07-05T10:07:21.533Z,2.20
2018-07-05T10:09:48.801Z,2.97
2018-07-05T10:12:16.065Z,2.90
2018-07-05T10:14:43.353Z,2.67
2018-07-05T10:17:10.633Z,2.70
2018-07-05T10:19:37.912Z,3.43
2018-07-05T10:22:05.178Z,3.13
2018-07-05T10:24:32.444Z,2.77
2018-07-05T10:26:59.737Z,2.60
2018-07-05T10:29:39.568Z,2.77
2018-07-05T10:32:19.172Z,3.10
2018-07-05T10:34:46.435Z,2.70
2018-07-05T10:37:17.946Z,3.40
2018-07-05T10:39:58.055Z,3.17
2018-07-05T10:42:37.523Z,2.70
2018-07-05T10:45:17.456Z,3.07
2018-07-05T10:47:57.041Z,3.47
2018-07-05T10:50:36.518Z,2.63
2018-07-05T10:53:16.662Z,3.13
2018-07-05T10:55:56.205Z,3.13
2018-07-05T10:58:35.889Z,2.90
2018-07-05T11:01:15.429Z,2.97
2018-07-05T11:03:55.037Z,3.30
2018-07-05T11:06:34.654Z,3.10
2018-07-05T11:09:14.266Z,3.13
2018-07-05T11:11:53.912Z,3.20
2018-07-05T11:14:33.562Z,9.30
2018-07-05T11:17:13.348Z,4.07
2018-07-05T11:19:52.838Z,3.00
2018-07-05T11:22:32.377Z,3.80
2018-07-05T11:25:11.977Z,2.87
2018-07-05T11:27:51.602Z,3.17
2018-07-05T11:30:31.221Z,3.00
2018-07-05T11:33:10.810Z,2.90
2018-07-05T11:35:50.406Z,2.77
2018-07-05T11:38:30.045Z,2.63
2018-07-05T11:41:09.659Z,2.93
2018-07-05T11:43:49.335Z,2.93
2018-07-05T11:46:28.843Z,4.43
2018-07-05T11:49:08.442Z,2.70
2018-07-05T11:51:48.098Z,3.07
2018-07-05T11:54:27.581Z,3.33
2018-07-05T11:57:07.182Z,2.80
2018-07-05T11:59:46.764Z,3.10
2018-07-05T12:02:26.402Z,3.40
2018-07-05T12:05:06.017Z,2.90
2018-07-05T12:07:45.672Z,3.40
2018-07-05T12:10:25.149Z,3.07
2018-07-05T12:13:04.823Z,3.10
2018-07-05T12:15:44.318Z,2.50
2018-07-05T12:18:23.897Z,3.10
2018-07-05T12:21:03.593Z,2.83
2018-07-05T12:23:43.118Z,2.50
2018-07-05T12:26:22.525Z,2.23
2018-07-05T12:29:02.133Z,2.60
2018-07-05T12:31:41.641Z,2.57
2018-07-05T12:34:21.186Z,2.80
2018-07-05T12:37:00.693Z,2.00
2018-07-05T12:39:40.357Z,2.13
2018-07-05T12:42:19.980Z,2.50
2018-07-05T12:44:59.593Z,2.73
2018-07-05T12:47:39.189Z,2.97
2018-07-05T12:50:18.846Z,2.10
2018-07-05T12:52:58.457Z,3.23
2018-07-05T12:55:38.077Z,3.63
2018-07-05T12:58:17.686Z,2.60
2018-07-05T13:00:57.304Z,2.30
2018-07-05T13:03:36.829Z,2.50
2018-07-05T13:06:16.265Z,2.97
2018-07-05T13:08:55.745Z,2.70
2018-07-05T13:11:35.246Z,3.10
2018-07-05T13:14:14.891Z,2.40
2018-07-05T13:16:54.429Z,2.53
2018-07-05T13:19:33.933Z,2.70
2018-07-05T13:22:13.505Z,2.73
2018-07-05T13:24:53.156Z,2.13
2018-07-05T13:27:32.812Z,3.03
2018-07-05T13:30:12.442Z,2.47
2018-07-05T13:32:51.947Z,2.40
2018-07-05T13:35:31.441Z,3.40
2018-07-05T13:38:10.917Z,2.70
2018-07-05T13:40:50.474Z,2.20
2018-07-05T13:43:30.105Z,3.20
2018-07-05T13:46:09.741Z,2.57
2018-07-05T13:48:49.353Z,2.37
2018-07-05T13:51:28.959Z,2.50
2018-07-05T13:57:18.462Z,3.70
2018-07-05T13:59:58.030Z,3.13
2018-07-05T14:02:37.500Z,2.87
2018-07-05T14:05:17.013Z,2.60
2018-07-05T14:07:56.679Z,3.70
2018-07-05T14:10:36.354Z,3.20
2018-07-05T14:13:15.982Z,2.50
2018-07-05T14:15:55.616Z,2.60
2018-07-05T14:18:35.281Z,3.60
2018-07-05T14:21:14.902Z,4.00
2018-07-05T14:23:54.493Z,2.80
2018-07-05T14:26:34.140Z,2.60
2018-07-05T14:29:13.774Z,2.50
2018-07-05T14:31:53.393Z,2.30
2018-07-05T14:34:33.059Z,2.20
2018-07-05T14:37:12.672Z,2.50
2018-07-05T14:39:52.524Z,2.77
2018-07-05T14:42:32.170Z,2.43
2018-07-05T14:45:11.810Z,2.37
2018-07-05T14:47:51.473Z,2.27
2018-07-05T14:50:31.093Z,2.20
2018-07-05T14:53:10.739Z,2.67
2018-07-05T14:55:50.338Z,2.47
2018-07-05T14:58:29.980Z,2.83
2018-07-05T15:01:09.460Z,2.47
2018-07-05T15:03:48.980Z,2.70
2018-07-05T15:06:28.513Z,2.23
2018-07-05T15:09:08.130Z,2.57
2018-07-05T15:11:47.742Z,2.43
2018-07-05T15:14:27.382Z,2.20
2018-07-05T15:17:07.410Z,2.33
2018-07-05T15:19:47.070Z,2.27
2018-07-05T15:22:26.663Z,2.50
2018-07-05T15:25:06.303Z,2.50
2018-07-05T15:27:45.965Z,2.40
2018-07-05T15:30:25.457Z,2.40
2018-07-05T15:33:04.969Z,2.20
2018-07-05T15:35:44.495Z,2.10
2018-07-05T15:38:23.981Z,2.33
2018-07-05T15:41:03.511Z,2.40
2018-07-05T15:43:43.037Z,2.20
2018-07-05T15:46:22.572Z,2.57
2018-07-05T15:49:06.534Z,2.30
2018-07-05T15:51:46.087Z,2.30
2018-07-05T15:54:25.698Z,2.20
2018-07-05T15:57:06.948Z,3.00
2018-07-05T15:59:47.488Z,2.37
2018-07-05T16:02:27.137Z,1.93
2018-07-05T16:05:06.743Z,2.87
2018-07-05T16:07:46.405Z,2.10
2018-07-05T16:10:27.676Z,2.97
2018-07-05T16:13:07.222Z,2.70
2018-07-05T16:58:25.974Z,3.80
2018-07-05T17:01:05.525Z,4.47
2018-07-05T17:03:45.086Z,4.40
2018-07-05T17:06:24.790Z,4.03
2018-07-05T17:09:04.916Z,3.87
2018-07-05T17:11:44.547Z,3.60
2018-07-05T17:14:24.231Z,3.97
2018-07-05T17:17:03.855Z,4.07
2018-07-05T17:19:43.708Z,4.20
2018-07-05T17:22:23.355Z,4.00
2018-07-05T17:25:02.988Z,4.00
2018-07-05T17:27:42.597Z,3.27
2018-07-05T17:30:22.114Z,3.60
2018-07-05T17:33:02.090Z,3.63
2018-07-05T17:35:41.579Z,4.07
2018-07-05T17:38:21.016Z,4.20
2018-07-05T17:41:00.552Z,3.60
2018-07-05T17:43:40.057Z,3.00
2018-07-05T17:46:19.752Z,3.87
2018-07-05T17:48:59.413Z,3.47
2018-07-05T17:51:39.094Z,3.60
2018-07-05T17:54:18.683Z,3.30
2018-07-05T17:56:58.233Z,3.47
2018-07-05T17:59:37.781Z,2.73
2018-07-05T18:02:17.270Z,3.83
2018-07-05T18:04:56.797Z,3.50
2018-07-05T18:07:36.473Z,3.87
2018-07-05T18:10:16.019Z,3.83
2018-07-05T18:12:55.546Z,3.97
2018-07-05T18:15:35.077Z,4.03
2018-07-05T18:18:14.561Z,3.70
2018-07-05T18:20:54.094Z,3.50
2018-07-05T18:23:33.610Z,3.50
2018-07-05T18:26:13.290Z,5.77
2018-07-05T18:28:52.855Z,3.70
2018-07-05T18:31:32.365Z,3.70
2018-07-05T18:34:11.836Z,3.90
2018-07-05T18:36:51.688Z,3.57
2018-07-05T18:39:31.243Z,3.00
2018-07-05T18:42:10.854Z,4.03
2018-07-05T18:44:50.482Z,3.30
2018-07-05T18:47:29.961Z,3.50
2018-07-05T18:50:09.670Z,3.00
2018-07-05T18:52:49.203Z,3.10
2018-07-05T18:55:36.167Z,3.43
2018-07-05T18:58:15.758Z,3.60
2018-07-05T19:00:55.514Z,3.20
2018-07-05T19:03:35.209Z,3.50
2018-07-05T19:06:14.877Z,3.20
2018-07-05T19:11:40.402Z,3.20
2018-07-05T19:14:19.900Z,4.60
2018-07-05T19:16:59.471Z,3.17
2018-07-05T19:19:38.945Z,2.90
2018-07-05T19:22:18.615Z,2.40
2018-07-05T19:24:58.302Z,2.37
2018-07-05T19:27:38.125Z,2.67
2018-07-05T19:30:17.682Z,2.80
2018-07-05T19:32:57.361Z,2.60
2018-07-05T19:35:36.874Z,2.70
2018-07-05T19:38:16.810Z,3.20
2018-07-05T19:40:56.285Z,2.63
2018-07-05T19:43:35.777Z,3.20
2018-07-05T19:46:15.291Z,3.13
2018-07-05T19:48:54.804Z,2.87
2018-07-05T19:51:34.481Z,3.17
2018-07-05T19:54:13.990Z,3.70
2018-07-05T19:56:53.617Z,3.50
2018-07-05T19:59:33.125Z,3.10
2018-07-05T20:02:12.608Z,3.60
2018-07-05T20:04:52.319Z,3.93
2018-07-05T20:07:33.214Z,3.57
2018-07-05T20:10:12.693Z,3.47
2018-07-05T20:12:52.379Z,4.27
2018-07-05T20:15:31.860Z,3.40
2018-07-05T20:18:11.458Z,3.67
2018-07-05T20:20:51.061Z,4.70
2018-07-05T20:23:30.500Z,3.87
2018-07-05T20:26:10.029Z,7.80
2018-07-05T20:28:49.567Z,4.13
2018-07-05T20:31:29.138Z,4.10
2018-07-05T20:34:09.321Z,4.40
2018-07-05T20:36:48.857Z,4.83
2018-07-05T20:39:28.521Z,4.80
2018-07-05T20:42:08.225Z,4.47
2018-07-05T20:44:48.685Z,4.07
2018-07-05T20:47:28.351Z,4.93
2018-07-05T20:50:07.880Z,4.83
2018-07-05T20:52:47.394Z,4.80
2018-07-05T20:55:27.014Z,4.70
2018-07-05T20:58:06.662Z,5.10
2018-07-05T21:00:47.074Z,5.37
2018-07-05T21:03:26.690Z,4.90
2018-07-05T21:06:06.310Z,4.83
2018-07-05T21:08:46.001Z,4.70
2018-07-05T21:11:25.645Z,5.37
2018-07-05T21:14:05.332Z,5.37
2018-07-05T21:16:44.945Z,5.10
2018-07-05T21:19:24.554Z,5.63
2018-07-05T21:22:05.712Z,4.93
2018-07-05T21:24:45.225Z,4.90
2018-07-05T21:27:24.738Z,5.43
2018-07-05T21:30:04.180Z,5.80
2018-07-05T21:32:43.653Z,5.27
2018-07-05T21:35:23.154Z,5.93
2018-07-05T21:38:02.638Z,4.80
2018-07-05T21:40:42.112Z,5.07
2018-07-05T21:43:22.441Z,5.10
2018-07-05T21:46:02.074Z,5.10
2018-07-05T21:48:41.513Z,4.90
2018-07-05T21:51:21.043Z,5.20
2018-07-05T21:54:00.652Z,5.93
2018-07-05T21:56:40.155Z,5.43
2018-07-05T21:59:19.695Z,5.00
2018-07-05T22:01:59.339Z,5.07
2018-07-05T22:04:38.993Z,6.57
2018-07-05T22:07:18.645Z,6.10
2018-07-05T22:09:58.370Z,6.37
2018-07-05T22:12:37.881Z,6.00
2018-07-05T22:15:17.470Z,5.90
2018-07-05T22:18:02.766Z,6.10
2018-07-05T22:20:47.721Z,5.60
2018-07-05T22:23:32.640Z,5.50
2018-07-05T22:26:17.551Z,6.27
2018-07-05T22:29:02.510Z,5.47
2018-07-05T22:31:42.011Z,5.57
2018-07-05T22:34:21.494Z,6.20
2018-07-05T22:37:01.143Z,6.40
2018-07-05T22:39:40.666Z,6.33
2018-07-05T22:42:20.144Z,5.77
2018-07-05T22:44:59.653Z,5.03
2018-07-05T22:47:39.165Z,6.30
2018-07-05T22:50:18.801Z,7.03
2018-07-05T22:52:58.286Z,6.03
2018-07-05T22:55:37.789Z,6.07
2018-07-05T22:58:17.272Z,6.43
2018-07-05T23:00:56.909Z,6.37
2018-07-05T23:03:36.413Z,6.60
2018-07-05T23:06:15.956Z,6.30
2018-07-05T23:08:56.217Z,5.75
2018-07-05T23:11:35.847Z,7.00
2018-07-05T23:14:29.959Z,6.97
2018-07-05T23:17:09.667Z,5.77
2018-07-05T23:19:49.450Z,6.37
2018-07-05T23:22:29.288Z,6.37
2018-07-05T23:25:08.821Z,6.07
2018-07-05T23:27:48.599Z,6.20
2018-07-05T23:30:28.377Z,6.33
2018-07-05T23:33:08.261Z,6.45
2018-07-05T23:35:47.910Z,6.83
2018-07-05T23:38:27.814Z,7.05
2018-07-05T23:41:07.601Z,5.47
2018-07-05T23:43:47.485Z,6.00
2018-07-05T23:46:27.401Z,5.97
2018-07-05T23:49:07.307Z,6.05
2018-07-05T23:51:47.160Z,6.10
2018-07-05T23:54:26.945Z,5.60
2018-07-05T23:57:06.728Z,5.55
2018-07-05T23:59:46.601Z,5.53
